Time;durP1;ratioP1;P1;durP2;ratioP2;P2;SDS_P1;SDS_P2;PMS_P1;PMS_P2;Temp;Humidity;BMP_temperature;BMP_pressure;BME280_temperature;BME280_humidity;BME280_pressure;Samples;Min_cycle;Max_cycle;Signal;HPM_P1;HPM_P2
2023/12/07 00:01:17;;;;;;;14.40;8.57;;;;;;;2.49;100.00;100013.53;5093215;28;20052;-41
2023/12/07 00:03:45;;;;;;;14.90;8.90;;;;;;;2.44;100.00;100008.44;5093430;28;20048;-44
2023/12/07 00:06:14;;;;;;;13.80;8.57;;;;;;;2.49;100.00;100013.53;5093213;28;20051;-42
2023/12/07 00:08:44;;;;;;;13.20;8.25;;;;;;;2.52;100.00;100016.09;5093220;28;20047;-43
2023/12/07 00:11:12;;;;;;;13.45;8.38;;;;;;;2.56;100.00;100012.44;5093082;28;20056;-41
2023/12/07 00:13:41;;;;;;;14.63;8.73;;;;;;;2.51;100.00;100016.97;5092917;28;20516;-40
2023/12/07 00:16:09;;;;;;;14.20;8.57;;;;;;;2.48;100.00;100012.69;5092983;28;20089;-41
2023/12/07 00:18:40;;;;;;;13.70;8.80;;;;;;;2.40;100.00;100009.41;5093002;28;20056;-41
2023/12/07 00:21:09;;;;;;;13.93;8.48;;;;;;;2.45;100.00;100009.28;5092997;28;20070;-41
2023/12/07 00:23:38;;;;;;;15.82;9.23;;;;;;;2.40;100.00;100004.16;5091742;28;20048;-42
2023/12/07 00:26:07;;;;;;;12.38;7.97;;;;;;;2.27;100.00;100008.06;5092797;28;20048;-41
2023/12/07 00:28:37;;;;;;;14.32;8.18;;;;;;;2.25;100.00;100005.50;5092727;28;20125;-41
2023/12/07 00:31:05;;;;;;;11.75;7.38;;;;;;;2.19;100.00;100005.66;5092468;28;20134;-42
2023/12/07 00:33:35;;;;;;;11.07;7.03;;;;;;;2.23;100.00;100012.56;5092256;28;20055;-41
2023/12/07 00:36:03;;;;;;;10.50;6.47;;;;;;;2.22;100.00;100009.97;5092450;28;20044;-39
2023/12/07 00:38:32;;;;;;;9.05;5.82;;;;;;;2.25;100.00;100015.16;5092269;28;20050;-41
2023/12/07 00:41:01;;;;;;;9.70;5.97;;;;;;;2.06;100.00;100012.22;5092451;28;20048;-41
2023/12/07 00:43:30;;;;;;;10.40;5.70;;;;;;;2.00;100.00;100010.59;5092793;28;20047;-41
2023/12/07 00:45:58;;;;;;;9.95;5.35;;;;;;;2.19;100.00;100010.06;5093122;28;20480;-41
2023/12/07 00:48:27;;;;;;;7.18;4.68;;;;;;;1.94;100.00;100013.44;5092848;28;20404;-41
2023/12/07 00:50:55;;;;;;;8.70;5.38;;;;;;;1.94;100.00;100015.19;5092384;28;20048;-42
2023/12/07 00:53:23;;;;;;;8.35;4.75;;;;;;;2.03;100.00;100014.03;5092285;28;20075;-40
2023/12/07 00:55:52;;;;;;;7.93;5.03;;;;;;;2.13;100.00;100011.13;5092424;28;20121;-40
2023/12/07 00:58:20;;;;;;;8.65;4.78;;;;;;;2.21;100.00;100013.50;5092527;28;20157;-41
2023/12/07 01:00:50;;;;;;;6.47;4.10;;;;;;;1.96;100.00;100018.66;5092114;28;20564;-40
2023/12/07 01:03:18;;;;;;;6.05;3.92;;;;;;;1.72;100.00;100009.66;5092268;28;20481;-41
2023/12/07 01:05:47;;;;;;;8.05;4.75;;;;;;;1.85;100.00;100011.06;5092333;28;20048;-40
2023/12/07 01:08:18;;;;;;;6.45;3.60;;;;;;;1.72;100.00;100009.66;5091768;28;20131;-41
2023/12/07 01:10:47;;;;;;;7.28;4.18;;;;;;;1.84;100.00;100004.09;5091800;28;20051;-41
2023/12/07 01:13:15;;;;;;;6.30;3.42;;;;;;;1.70;100.00;100008.84;5092106;28;20075;-42
2023/12/07 01:15:49;;;;;;;7.18;3.67;;;;;;;1.65;100.00;100003.75;5091789;28;20052;-41
2023/12/07 01:18:17;;;;;;;5.68;3.58;;;;;;;1.48;100.00;100005.97;5092523;28;20048;-43
2023/12/07 01:20:46;;;;;;;6.28;3.63;;;;;;;1.58;100.00;100003.94;5092259;28;20097;-41
2023/12/07 01:23:15;;;;;;;6.28;3.83;;;;;;;1.75;100.00;100003.47;5092448;28;20047;-40
2023/12/07 01:25:44;;;;;;;5.57;3.55;;;;;;;1.79;100.00;99997.22;5092011;28;20485;-42
2023/12/07 01:28:12;;;;;;;7.25;4.32;;;;;;;1.80;100.00;100007.69;5092046;28;20538;-41
2023/12/07 01:30:40;;;;;;;5.93;4.20;;;;;;;1.85;100.00;100007.56;5092603;28;20508;-42
2023/12/07 01:33:10;;;;;;;6.95;4.32;;;;;;;1.73;100.00;100000.88;5093831;28;20052;-41
2023/12/07 01:35:39;;;;;;;6.28;4.18;;;;;;;1.72;100.00;99996.50;5094432;28;20405;-40
2023/12/07 01:38:07;;;;;;;6.38;4.22;;;;;;;1.56;100.00;99993.47;5091506;28;20135;-41
2023/12/07 01:40:36;;;;;;;6.70;4.82;;;;;;;1.58;100.00;99996.06;5091780;28;20131;-42
2023/12/07 01:43:04;;;;;;;6.57;4.35;;;;;;;1.55;100.00;99997.00;5091953;28;20079;-42
2023/12/07 01:45:33;;;;;;;7.10;4.40;;;;;;;1.61;100.00;99988.94;5091970;28;20048;-41
2023/12/07 01:48:05;;;;;;;6.82;4.78;;;;;;;1.75;100.00;99995.59;5092152;28;20104;-40
2023/12/07 01:50:36;;;;;;;7.88;5.05;;;;;;;1.56;100.00;99997.88;5091891;28;20044;-40
2023/12/07 01:53:05;;;;;;;7.88;4.93;;;;;;;1.59;100.00;99993.38;5091865;28;20764;-40
2023/12/07 01:55:37;;;;;;;8.70;5.10;;;;;;;1.66;100.00;99996.72;5091745;28;20044;-40
2023/12/07 01:58:06;;;;;;;8.32;5.00;;;;;;;1.80;100.00;100001.56;5092392;28;20044;-41
2023/12/07 02:00:35;;;;;;;9.20;5.35;;;;;;;1.90;100.00;100000.41;5094375;28;20052;-40
2023/12/07 02:03:08;;;;;;;8.00;5.28;;;;;;;2.05;100.00;100001.72;5093759;28;20048;-40
2023/12/07 02:05:38;;;;;;;8.02;5.45;;;;;;;2.03;100.00;100003.53;5093290;28;20123;-40
2023/12/07 02:08:06;;;;;;;8.23;5.10;;;;;;;1.85;100.00;99999.69;5096191;28;20135;-40
2023/12/07 02:10:35;;;;;;;7.95;5.03;;;;;;;2.03;100.00;100001.78;5095846;28;20104;-41
2023/12/07 02:13:04;;;;;;;6.72;4.57;;;;;;;1.86;100.00;99990.88;5095955;28;20062;-41
2023/12/07 02:15:32;;;;;;;7.30;5.00;;;;;;;2.00;100.00;99991.31;5095229;28;20059;-40
2023/12/07 02:18:07;;;;;;;7.20;4.88;;;;;;;2.14;100.00;99996.19;5097605;28;20397;-50
2023/12/07 02:20:44;;;;;;;9.00;4.90;;;;;;;1.75;100.00;99982.44;5096028;28;20055;-40
2023/12/07 02:23:15;;;;;;;7.00;4.90;;;;;;;1.95;100.00;99988.84;5096984;28;20055;-41
2023/12/07 02:25:53;;;;;;;8.20;4.80;;;;;;;1.81;100.00;99993.63;5097030;28;20058;-41
2023/12/07 02:28:23;;;;;;;9.15;4.75;;;;;;;1.89;100.00;99998.69;5095653;28;20091;-40
2023/12/07 02:30:54;;;;;;;7.05;4.60;;;;;;;2.10;100.00;99992.78;5095370;28;20044;-41
2023/12/07 02:33:23;;;;;;;7.78;5.10;;;;;;;1.89;100.00;99996.03;5095170;28;20080;-42
2023/12/07 02:35:51;;;;;;;8.02;4.85;;;;;;;1.83;100.00;99991.81;5096848;28;20134;-40
2023/12/07 02:38:22;;;;;;;7.97;5.60;;;;;;;1.76;100.00;99995.53;5098612;28;20417;-40
2023/12/07 02:40:51;;;;;;;7.22;5.13;;;;;;;1.95;100.00;99995.88;5099360;28;20052;-40
2023/12/07 02:43:21;;;;;;;8.40;5.95;;;;;;;1.95;100.00;99995.88;5099449;28;20059;-40
2023/12/07 02:45:51;;;;;;;9.18;5.65;;;;;;;2.11;100.00;100002.41;5097688;28;20126;-43
2023/12/07 02:48:21;;;;;;;10.55;5.65;;;;;;;2.05;100.00;100002.59;5095039;28;20048;-41
2023/12/07 02:50:50;;;;;;;8.45;5.47;;;;;;;1.98;100.00;100006.31;5094415;28;20116;-40
2023/12/07 02:53:19;;;;;;;11.07;6.13;;;;;;;1.83;100.00;100007.59;5094735;28;20048;-41
2023/12/07 02:55:47;;;;;;;9.80;5.70;;;;;;;1.93;100.00;100002.94;5095341;28;20044;-40
2023/12/07 02:58:15;;;;;;;9.38;5.68;;;;;;;2.04;100.00;99994.75;5094315;28;20412;-42
2023/12/07 03:00:44;;;;;;;10.02;5.82;;;;;;;1.96;100.00;99997.59;5095329;28;20560;-40
2023/12/07 03:03:14;;;;;;;9.15;5.82;;;;;;;2.06;100.00;99993.78;5094084;28;20048;-40
2023/12/07 03:05:42;;;;;;;9.48;5.93;;;;;;;1.89;100.00;99998.69;5094439;28;20432;-40
2023/12/07 03:08:11;;;;;;;7.90;5.05;;;;;;;1.82;100.00;100011.13;5093961;28;20052;-41
2023/12/07 03:10:41;;;;;;;9.88;5.35;;;;;;;1.95;100.00;100009.03;5094074;28;20101;-40
2023/12/07 03:13:09;;;;;;;9.45;5.95;;;;;;;1.90;100.00;100008.28;5094231;28;20044;-41
2023/12/07 03:15:37;;;;;;;9.23;5.15;;;;;;;1.65;100.00;100008.13;5093799;28;20461;-41
2023/12/07 03:18:07;;;;;;;10.52;6.32;;;;;;;1.89;100.00;100012.69;5092196;28;20048;-41
2023/12/07 03:20:37;;;;;;;9.45;5.97;;;;;;;1.83;100.00;100012.84;5094085;28;20048;-39
2023/12/07 03:23:05;;;;;;;9.10;5.55;;;;;;;1.99;100.00;100019.41;5093803;28;20438;-40
2023/12/07 03:25:33;;;;;;;9.65;5.80;;;;;;;1.82;100.00;100021.66;5092648;28;20139;-41
2023/12/07 03:28:02;;;;;;;9.10;5.57;;;;;;;1.72;100.00;100025.44;5093732;28;20127;-41
2023/12/07 03:30:30;;;;;;;10.02;6.22;;;;;;;1.76;100.00;100026.25;5093915;28;20051;-41
2023/12/07 03:32:58;;;;;;;11.95;5.93;;;;;;;1.92;100.00;100023.13;5093435;28;20062;-40
2023/12/07 03:35:30;;;;;;;8.80;5.53;;;;;;;1.94;100.00;100031.84;5093588;28;20055;-39
2023/12/07 03:37:59;;;;;;;8.90;5.68;;;;;;;1.96;100.00;100024.75;5093564;28;20134;-40
2023/12/07 03:40:29;;;;;;;7.35;4.70;;;;;;;1.94;100.00;100023.09;5093485;28;20048;-40
2023/12/07 03:42:57;;;;;;;7.90;4.82;;;;;;;1.77;100.00;100027.97;5093470;28;20051;-40
2023/12/07 03:45:26;;;;;;;7.85;4.97;;;;;;;1.95;100.00;100019.56;5093336;28;20121;-41
2023/12/07 03:47:55;;;;;;;6.93;4.43;;;;;;;2.19;100.00;100026.72;5093389;28;20485;-41
2023/12/07 03:50:23;;;;;;;8.40;4.65;;;;;;;2.15;100.00;100027.72;5093391;28;20048;-42
2023/12/07 03:52:52;;;;;;;6.28;4.30;;;;;;;2.10;100.00;100034.88;5093391;28;20050;-40
2023/12/07 03:55:21;;;;;;;7.53;4.57;;;;;;;2.01;100.00;100032.50;5093116;28;20047;-40
2023/12/07 03:57:50;;;;;;;7.88;5.13;;;;;;;2.12;100.00;100030.44;5093756;28;20564;-41
2023/12/07 04:00:18;;;;;;;8.25;5.10;;;;;;;2.08;100.00;100030.56;5093302;28;20044;-41
2023/12/07 04:02:49;;;;;;;7.80;5.13;;;;;;;2.05;100.00;100039.44;5093211;28;20112;-40
2023/12/07 04:05:17;;;;;;;10.15;5.30;;;;;;;1.95;100.00;100037.97;5093004;28;20056;-42
2023/12/07 04:07:45;;;;;;;8.05;5.05;;;;;;;2.03;100.00;100035.97;5093077;28;20048;-41
2023/12/07 04:10:14;;;;;;;10.38;4.95;;;;;;;1.71;100.00;100040.34;5092924;28;20126;-42
2023/12/07 04:12:44;;;;;;;7.88;4.65;;;;;;;1.94;100.00;100036.25;5092814;28;20052;-40
2023/12/07 04:15:14;;;;;;;9.07;5.03;;;;;;;1.96;100.00;100047.59;5093393;28;20098;-45
2023/12/07 04:17:46;;;;;;;7.85;4.88;;;;;;;1.87;100.00;100050.47;5093134;28;20131;-41
2023/12/07 04:20:15;;;;;;;6.80;4.65;;;;;;;1.84;100.00;100050.56;5092967;28;20458;-40
2023/12/07 04:22:45;;;;;;;8.32;4.63;;;;;;;1.81;100.00;100053.25;5093275;28;20044;-41
2023/12/07 04:25:14;;;;;;;6.70;4.50;;;;;;;1.83;100.00;100048.81;5092733;28;20059;-39
2023/12/07 04:27:44;;;;;;;6.47;3.63;;;;;;;1.75;100.00;100054.31;5092923;28;20561;-40
2023/12/07 04:30:15;;;;;;;5.82;4.07;;;;;;;1.81;100.00;100051.50;5092605;28;20058;-40
2023/12/07 04:32:44;;;;;;;5.55;3.92;;;;;;;1.79;100.00;100052.44;5092737;28;20507;-42
2023/12/07 04:35:12;;;;;;;6.63;3.90;;;;;;;1.76;100.00;100057.78;5092739;28;20406;-40
2023/12/07 04:37:41;;;;;;;6.57;4.03;;;;;;;1.53;100.00;100061.03;5092134;28;20040;-41
2023/12/07 04:40:10;;;;;;;6.05;4.03;;;;;;;1.60;100.00;100063.44;5092440;28;20131;-41
2023/12/07 04:42:39;;;;;;;6.95;4.13;;;;;;;1.76;100.00;100058.66;5095660;28;20044;-41
2023/12/07 04:45:10;;;;;;;8.68;4.40;;;;;;;1.70;100.00;100061.44;5101655;28;20048;-42
2023/12/07 04:47:38;;;;;;;6.55;4.18;;;;;;;1.72;100.00;100062.25;5092385;28;20174;-42
2023/12/07 04:50:07;;;;;;;7.45;5.00;;;;;;;1.56;100.00;100069.72;5092234;28;20040;-41
2023/12/07 04:52:35;;;;;;;11.90;6.88;;;;;;;1.68;100.00;100069.38;5092403;28;20040;-41
2023/12/07 04:55:06;;;;;;;10.15;6.28;;;;;;;1.79;100.00;100079.59;5091971;28;20060;-41
2023/12/07 04:57:34;;;;;;;9.70;6.22;;;;;;;1.95;100.00;100078.28;5092026;28;20048;-41
2023/12/07 05:00:05;;;;;;;11.00;6.25;;;;;;;1.65;100.00;100077.34;5091808;28;20520;-41
2023/12/07 05:02:37;;;;;;;8.82;5.60;;;;;;;1.68;100.00;100072.00;5092322;28;20058;-40
2023/12/07 05:05:06;;;;;;;8.27;5.15;;;;;;;1.78;100.00;100074.38;5092269;28;20593;-41
2023/12/07 05:07:35;;;;;;;7.95;4.40;;;;;;;1.63;100.00;100073.88;5092474;28;20048;-41
2023/12/07 05:10:04;;;;;;;9.15;5.25;;;;;;;1.51;100.00;100079.47;5092065;28;20044;-40
2023/12/07 05:12:37;;;;;;;9.07;4.88;;;;;;;1.47;100.00;100087.50;5092184;28;20044;-42
2023/12/07 05:15:06;;;;;;;7.97;4.72;;;;;;;1.44;100.00;100088.41;5092089;28;20048;-41
2023/12/07 05:17:36;;;;;;;8.10;5.30;;;;;;;1.51;100.00;100089.97;5092384;28;20103;-40
2023/12/07 05:20:07;;;;;;;7.68;5.00;;;;;;;1.58;100.00;100101.22;5092246;28;20044;-41
2023/12/07 05:22:35;;;;;;;7.68;4.85;;;;;;;1.57;100.00;100105.59;5092016;28;20047;-43
2023/12/07 05:25:06;;;;;;;8.43;5.40;;;;;;;1.38;100.00;100097.31;5091910;28;20044;-40
2023/12/07 05:27:34;;;;;;;8.32;5.25;;;;;;;1.65;100.00;100102.78;5091834;28;20040;-41
2023/12/07 05:30:03;;;;;;;11.60;5.22;;;;;;;1.70;100.00;100107.00;5092217;28;20274;-41
2023/12/07 05:32:32;;;;;;;8.38;4.90;;;;;;;1.78;100.00;100113.84;5092808;28;20044;-43
2023/12/07 05:35:02;;;;;;;10.07;4.78;;;;;;;1.80;100.00;100114.66;5091581;28;20052;-40
2023/12/07 05:37:30;;;;;;;9.65;4.65;;;;;;;1.69;100.00;100114.94;5071455;28;20132;-41
2023/12/07 05:39:58;;;;;;;7.25;4.85;;;;;;;1.72;100.00;100120.97;5071207;28;20049;-40
2023/12/07 05:42:26;;;;;;;11.80;5.10;;;;;;;1.51;100.00;100118.91;5074723;28;20044;-41
2023/12/07 05:44:54;;;;;;;7.93;4.63;;;;;;;1.64;100.00;100128.22;5075648;28;20044;-41
2023/12/07 05:47:24;;;;;;;8.13;4.88;;;;;;;1.88;100.00;100121.44;5075724;28;20059;-41
2023/12/07 05:49:52;;;;;;;8.63;5.07;;;;;;;1.81;100.00;100116.38;5075214;28;20044;-42
2023/12/07 05:52:21;;;;;;;9.98;5.53;;;;;;;1.82;100.00;100118.09;5075195;28;20048;-41
2023/12/07 05:54:50;;;;;;;8.35;5.13;;;;;;;2.00;100.00;100120.25;5074975;28;20383;-41
2023/12/07 05:57:19;;;;;;;10.98;5.80;;;;;;;1.93;100.00;100123.94;5075005;28;20498;-41
2023/12/07 05:59:47;;;;;;;8.98;5.75;;;;;;;1.87;100.00;100134.63;5075299;28;20058;-40
2023/12/07 06:02:16;;;;;;;8.85;5.28;;;;;;;1.78;100.00;100130.47;5075012;28;20051;-42
2023/12/07 06:04:44;;;;;;;11.60;6.03;;;;;;;1.91;100.00;100138.91;5075301;28;20049;-40
2023/12/07 06:07:13;;;;;;;9.30;5.43;;;;;;;2.01;100.00;100137.75;5074899;28;20052;-41
2023/12/07 06:09:44;;;;;;;9.10;6.03;;;;;;;2.00;100.00;100136.03;5074768;28;20068;-42
2023/12/07 06:12:15;;;;;;;8.80;5.85;;;;;;;2.06;100.00;100135.00;5074990;28;20040;-41
2023/12/07 06:14:43;;;;;;;9.85;6.40;;;;;;;2.05;100.00;100141.19;5074785;28;20057;-42
2023/12/07 06:17:12;;;;;;;12.65;6.60;;;;;;;2.18;100.00;100142.56;5075673;28;20048;-42
2023/12/07 06:19:43;;;;;;;12.27;6.32;;;;;;;2.15;100.00;100140.03;5074509;28;20126;-41
2023/12/07 06:22:13;;;;;;;10.07;6.18;;;;;;;2.09;100.00;100146.28;5074243;28;20106;-42
2023/12/07 06:24:42;;;;;;;10.38;5.85;;;;;;;1.84;100.00;100150.50;5074312;28;20044;-41
2023/12/07 06:27:11;;;;;;;9.88;5.55;;;;;;;2.01;100.00;100148.28;5074780;28;20094;-42
2023/12/07 06:29:42;;;;;;;10.30;6.28;;;;;;;1.91;100.00;100159.94;5074332;28;20106;-41
2023/12/07 06:32:11;;;;;;;11.65;6.70;;;;;;;1.99;100.00;100155.34;5074308;28;20131;-41
2023/12/07 06:34:42;;;;;;;13.70;7.10;;;;;;;1.86;100.00;100159.22;5074204;28;20489;-41
2023/12/07 06:37:11;;;;;;;9.75;6.65;;;;;;;1.68;100.00;100160.53;5074465;28;20045;-42
2023/12/07 06:39:40;;;;;;;10.10;5.80;;;;;;;1.72;100.00;100164.81;5074257;28;20045;-41
2023/12/07 06:42:08;;;;;;;12.68;6.68;;;;;;;1.45;100.00;100169.00;5072858;28;20044;-41
2023/12/07 06:44:38;;;;;;;10.32;5.47;;;;;;;1.26;100.00;100173.84;5074478;28;20052;-41
2023/12/07 06:47:07;;;;;;;8.60;5.13;;;;;;;1.15;100.00;100176.69;5076565;28;20064;-44
2023/12/07 06:49:36;;;;;;;9.07;5.38;;;;;;;1.40;100.00;100181.38;5092837;28;20492;-40
2023/12/07 06:52:20;;;;;;;9.25;5.57;;;;;;;1.27;100.00;100186.06;5080929;28;20085;-39
2023/12/07 06:54:49;;;;;;;8.63;5.22;;;;;;;1.29;100.00;100188.66;5093197;28;20048;-39
2023/12/07 06:57:18;;;;;;;8.90;5.35;;;;;;;1.39;100.00;100187.53;5093421;28;20047;-41
2023/12/07 06:59:48;;;;;;;10.82;5.88;;;;;;;1.38;100.00;100180.56;5091973;28;20450;-41
2023/12/07 07:02:20;;;;;;;8.00;5.20;;;;;;;1.36;100.00;100195.50;5093339;28;20051;-41
2023/12/07 07:04:48;;;;;;;9.45;5.63;;;;;;;1.50;100.00;100193.41;5093065;28;20513;-41
2023/12/07 07:07:17;;;;;;;7.47;5.05;;;;;;;1.41;100.00;100193.63;5092886;28;20048;-42
2023/12/07 07:09:46;;;;;;;9.43;5.55;;;;;;;1.41;100.00;100193.63;5092179;28;20048;-41
2023/12/07 07:12:16;;;;;;;7.97;5.20;;;;;;;1.46;100.00;100193.53;5073258;28;20151;-40
2023/12/07 07:14:44;;;;;;;9.00;5.90;;;;;;;1.34;100.00;100192.91;5088468;28;20124;-40
2023/12/07 07:17:14;;;;;;;10.43;6.13;;;;;;;1.33;100.00;100193.81;5093535;28;20409;-40
2023/12/07 07:19:42;;;;;;;10.88;6.93;;;;;;;1.35;100.00;100201.63;5091491;28;20066;-41
2023/12/07 07:22:11;;;;;;;10.27;6.43;;;;;;;1.41;100.00;100193.63;5073072;28;20075;-41
2023/12/07 07:24:42;;;;;;;10.95;7.40;;;;;;;1.42;100.00;100197.97;5072861;28;20052;-44
2023/12/07 07:27:10;;;;;;;11.48;6.40;;;;;;;1.58;100.00;100201.97;5074544;28;20102;-42
2023/12/07 07:29:39;;;;;;;12.80;7.05;;;;;;;1.56;100.00;100206.41;5093007;28;20107;-41
2023/12/07 07:32:08;;;;;;;10.38;6.78;;;;;;;1.62;100.00;100202.75;5093108;28;20054;-42
2023/12/07 07:34:37;;;;;;;14.23;7.30;;;;;;;1.70;100.00;100208.69;5094031;28;20139;-41
2023/12/07 07:37:07;;;;;;;11.10;7.15;;;;;;;1.74;100.00;100213.00;5093051;28;20085;-40
2023/12/07 07:39:35;;;;;;;11.68;7.18;;;;;;;1.61;100.00;100215.03;5092820;28;20072;-40
2023/12/07 07:42:04;;;;;;;12.30;7.85;;;;;;;1.69;100.00;100215.72;5091299;28;20044;-41
2023/12/07 07:44:35;;;;;;;11.38;6.88;;;;;;;1.58;100.00;100217.75;5094821;28;20063;-48
2023/12/07 07:47:04;;;;;;;12.55;7.65;;;;;;;1.69;100.00;100214.84;5094514;28;20402;-42
2023/12/07 07:49:33;;;;;;;14.85;7.82;;;;;;;1.63;100.00;100226.38;5074030;28;20119;-40
2023/12/07 07:52:02;;;;;;;16.17;8.57;;;;;;;1.70;100.00;100224.47;5091529;28;20113;-42
2023/12/07 07:54:31;;;;;;;14.85;8.32;;;;;;;1.46;100.00;100228.56;5093181;28;20055;-41
2023/12/07 07:57:02;;;;;;;16.65;9.57;;;;;;;1.40;100.00;100226.94;5092877;28;20562;-40
2023/12/07 07:59:31;;;;;;;17.02;10.50;;;;;;;1.45;100.00;100232.09;5093159;28;20105;-41
2023/12/07 08:01:59;;;;;;;19.63;9.90;;;;;;;1.46;100.00;100232.97;5093132;28;20101;-40
2023/12/07 08:04:27;;;;;;;18.17;10.27;;;;;;;1.35;100.00;100227.91;5094057;28;20051;-40
2023/12/07 08:06:56;;;;;;;18.23;9.60;;;;;;;1.43;100.00;100229.47;5095207;28;20051;-40
2023/12/07 08:09:25;;;;;;;16.83;10.10;;;;;;;1.47;100.00;100232.06;5093347;28;20127;-39
2023/12/07 08:11:54;;;;;;;18.65;9.55;;;;;;;1.50;100.00;100232.84;5090947;28;20165;-41
2023/12/07 08:14:22;;;;;;;13.93;8.98;;;;;;;1.44;100.00;100231.19;5092661;28;20104;-40
2023/12/07 08:16:52;;;;;;;17.00;10.02;;;;;;;1.64;100.00;100238.66;5094164;28;20048;-41
2023/12/07 08:19:20;;;;;;;19.58;9.90;;;;;;;1.59;100.00;100234.38;5094267;28;20446;-42
2023/12/07 08:21:49;;;;;;;17.27;9.93;;;;;;;1.69;100.00;100230.63;5094148;28;20404;-41
2023/12/07 08:24:17;;;;;;;14.48;9.85;;;;;;;1.69;100.00;100235.91;5094533;28;20040;-40
2023/12/07 08:26:47;;;;;;;16.83;9.90;;;;;;;1.58;100.00;100230.91;5092716;28;20413;-40
2023/12/07 08:29:17;;;;;;;20.00;11.25;;;;;;;1.61;100.00;100238.69;5092052;28;20044;-40
2023/12/07 08:31:46;;;;;;;18.35;10.20;;;;;;;1.62;100.00;100240.44;5090014;28;20052;-41
2023/12/07 08:34:18;;;;;;;18.58;10.48;;;;;;;1.61;100.00;100243.97;5092112;28;20078;-40
2023/12/07 08:36:50;;;;;;;32.65;16.65;;;;;;;1.47;100.00;100234.69;5092020;28;20048;-41
2023/12/07 08:39:18;;;;;;;27.73;14.60;;;;;;;1.70;100.00;100241.13;5091950;28;20040;-40
2023/12/07 08:41:48;;;;;;;21.00;12.15;;;;;;;1.76;100.00;100236.63;5090449;28;20131;-40
2023/12/07 08:44:17;;;;;;;19.90;11.60;;;;;;;1.70;100.00;100238.47;5091469;28;20105;-40
2023/12/07 08:46:46;;;;;;;20.95;11.60;;;;;;;1.87;100.00;100242.47;5090507;28;20060;-40
2023/12/07 08:49:16;;;;;;;21.58;12.35;;;;;;;1.62;100.00;100244.81;5091110;28;20055;-40
2023/12/07 08:51:45;;;;;;;19.98;10.57;;;;;;;1.64;100.00;100243.91;5090359;28;20039;-39
2023/12/07 08:54:33;;;;;;;16.60;10.35;;;;;;;1.48;100.00;100244.31;5091904;28;20052;-40
2023/12/07 08:57:03;;;;;;;17.15;10.32;;;;;;;1.37;100.00;100249.81;5089943;28;20078;-41
2023/12/07 08:59:33;;;;;;;18.63;10.73;;;;;;;1.68;100.00;100245.56;5091588;28;20054;-41
2023/12/07 09:02:01;;;;;;;15.90;9.70;;;;;;;1.81;100.00;100247.88;5090102;28;20207;-42
2023/12/07 09:04:30;;;;;;;20.20;11.02;;;;;;;1.80;100.00;100254.91;5091428;28;20416;-41
2023/12/07 09:07:01;;;;;;;16.65;11.00;;;;;;;1.76;100.00;100252.41;5091945;28;20097;-42
2023/12/07 09:09:29;;;;;;;20.65;11.48;;;;;;;1.96;100.00;100248.38;5092526;28;20059;-39
2023/12/07 09:11:57;;;;;;;23.83;12.52;;;;;;;1.90;100.00;100251.16;5092576;28;20044;-42
2023/12/07 09:14:32;;;;;;;20.30;11.32;;;;;;;1.79;100.00;100257.56;5092323;28;20052;-42
2023/12/07 09:17:04;;;;;;;19.70;11.95;;;;;;;1.94;100.00;100257.22;5090955;28;20048;-43
2023/12/07 09:19:32;;;;;;;19.73;11.65;;;;;;;1.78;100.00;100253.22;5090680;28;20509;-40
2023/12/07 09:22:01;;;;;;;21.80;12.52;;;;;;;1.85;100.00;100252.19;5089234;28;20420;-41
2023/12/07 09:24:29;;;;;;;19.38;11.85;;;;;;;2.09;100.00;100256.81;5090991;28;20052;-41
2023/12/07 09:26:57;;;;;;;19.73;12.18;;;;;;;2.18;100.00;100246.06;5091041;28;20048;-41
2023/12/07 09:29:28;;;;;;;22.33;12.10;;;;;;;2.20;100.00;100252.13;5090849;28;20102;-42
2023/12/07 09:31:59;;;;;;;22.10;12.10;;;;;;;2.33;100.00;100249.19;5089268;28;20048;-41
2023/12/07 09:34:30;;;;;;;20.13;11.40;;;;;;;2.33;100.00;100249.19;5091185;28;20143;-41
2023/12/07 09:37:08;;;;;;;17.90;10.45;;;;;;;2.29;100.00;100251.03;5090940;28;20450;-41
2023/12/07 09:39:39;;;;;;;19.20;11.50;;;;;;;2.23;100.00;100248.59;5090418;28;20074;-41
2023/12/07 09:42:07;;;;;;;18.00;10.25;;;;;;;2.11;100.00;100251.50;5090165;28;20056;-41
2023/12/07 09:44:38;;;;;;;16.73;10.20;;;;;;;1.85;100.00;100244.28;5091323;28;20051;-42
2023/12/07 09:47:07;;;;;;;21.05;11.13;;;;;;;1.98;100.00;100243.06;5091448;28;20080;-41
2023/12/07 09:49:35;;;;;;;17.90;10.88;;;;;;;2.18;100.00;100240.78;5090756;28;20044;-41
2023/12/07 09:52:05;;;;;;;21.30;11.15;;;;;;;2.25;100.00;100242.38;5089541;28;20454;-42
2023/12/07 09:54:35;;;;;;;20.15;10.95;;;;;;;2.00;100.00;100247.38;5090572;28;20044;-41
2023/12/07 09:57:03;;;;;;;18.83;10.68;;;;;;;2.15;100.00;100235.63;5090417;28;20048;-40
2023/12/07 09:59:31;;;;;;;19.10;10.40;;;;;;;1.89;100.00;100243.28;5090467;28;20077;-40
2023/12/07 10:02:01;;;;;;;18.98;10.38;;;;;;;1.85;100.00;100245.16;5089390;28;20055;-41
2023/12/07 10:04:30;;;;;;;20.00;10.30;;;;;;;1.93;100.00;100244.94;5090989;28;20101;-41
2023/12/07 10:06:58;;;;;;;17.67;10.80;;;;;;;2.01;100.00;100237.72;5090562;28;20048;-41
2023/12/07 10:09:27;;;;;;;19.15;11.63;;;;;;;2.18;100.00;100243.41;5090122;28;20048;-42
2023/12/07 10:12:06;;;;;;;18.15;11.40;;;;;;;1.97;100.00;100244.84;5088760;28;20489;-42
2023/12/07 10:14:39;;;;;;;21.20;11.50;;;;;;;2.01;100.00;100245.59;5090750;28;20086;-41
2023/12/07 10:17:09;;;;;;;19.73;12.02;;;;;;;1.95;100.00;100243.16;5090853;28;20055;-41
2023/12/07 10:19:38;;;;;;;19.20;11.55;;;;;;;1.97;100.00;100238.72;5090300;28;20124;-40
2023/12/07 10:22:16;;;;;;;22.17;12.45;;;;;;;2.01;100.00;100242.97;5090236;28;20066;-41
2023/12/07 10:24:44;;;;;;;18.00;11.07;;;;;;;1.93;100.00;100244.94;5090577;28;20063;-43
2023/12/07 10:27:12;;;;;;;21.42;12.13;;;;;;;2.08;100.00;100247.19;5090777;28;20481;-40
2023/12/07 10:29:41;;;;;;;18.63;12.10;;;;;;;2.08;100.00;100241.94;5094105;28;20378;-41
2023/12/07 10:32:12;;;;;;;23.63;12.77;;;;;;;2.01;100.00;100242.97;5093835;28;20485;-41
2023/12/07 10:34:40;;;;;;;19.88;11.75;;;;;;;2.06;100.00;100250.78;5094577;28;20044;-40
2023/12/07 10:37:08;;;;;;;19.45;12.77;;;;;;;2.14;100.00;100239.16;5093948;28;20048;-41
2023/12/07 10:39:39;;;;;;;19.70;11.52;;;;;;;2.10;100.00;100242.75;5093451;28;20051;-41
2023/12/07 10:42:11;;;;;;;19.33;11.15;;;;;;;2.33;100.00;100244.81;5092752;28;20066;-39
2023/12/07 10:44:42;;;;;;;17.85;11.13;;;;;;;2.34;100.00;100243.03;5093469;28;20106;-41
2023/12/07 10:47:13;;;;;;;21.58;10.07;;;;;;;2.58;100.00;100239.72;5093778;28;20043;-41
2023/12/07 10:49:44;;;;;;;16.00;9.70;;;;;;;2.29;100.00;100245.75;5092766;28;20048;-42
2023/12/07 10:52:22;;;;;;;15.73;9.40;;;;;;;2.27;100.00;100251.06;5093590;28;20052;-41
2023/12/07 10:55:03;;;;;;;16.95;9.73;;;;;;;2.07;100.00;100255.13;5093829;28;20142;-41
2023/12/07 10:57:35;;;;;;;16.45;9.48;;;;;;;1.97;100.00;100251.88;5073317;28;20052;-40
2023/12/07 11:00:03;;;;;;;17.20;10.68;;;;;;;2.34;100.00;100251.78;5090437;28;20048;-42
2023/12/07 11:02:37;;;;;;;25.15;13.63;;;;;;;2.41;100.00;100258.59;5093101;28;20079;-41
2023/12/07 11:05:07;;;;;;;28.55;13.30;;;;;;;2.78;100.00;100250.53;5093912;28;20079;-41
2023/12/07 11:07:43;;;;;;;27.25;15.55;;;;;;;2.45;100.00;100259.41;5093259;28;20046;-41
2023/12/07 11:10:19;;;;;;;25.38;15.27;;;;;;;2.41;100.00;100255.97;5091997;28;20048;-41
2023/12/07 11:12:54;;;;;;;22.63;14.05;;;;;;;2.29;100.00;100262.41;5093452;28;20101;-41
2023/12/07 11:15:22;;;;;;;24.15;14.77;;;;;;;2.23;100.00;100261.75;5093112;28;20105;-40
2023/12/07 11:17:53;;;;;;;27.27;14.02;;;;;;;2.38;100.00;100268.34;5093293;28;20059;-40
2023/12/07 11:20:39;;;;;;;26.92;15.50;;;;;;;2.53;100.00;100265.31;5092028;28;20048;-41
2023/12/07 11:23:08;;;;;;;27.50;14.52;;;;;;;2.37;100.00;100261.38;5093583;28;20047;-41
2023/12/07 11:25:37;;;;;;;24.52;14.15;;;;;;;2.64;100.00;100262.41;5094423;28;20133;-41
2023/12/07 11:28:09;;;;;;;23.88;12.88;;;;;;;2.38;100.00;100265.72;5093968;28;20082;-42
2023/12/07 11:30:37;;;;;;;19.17;11.77;;;;;;;2.39;100.00;100268.31;5092698;28;20040;-41